Time;durP1;ratioP1;P1;durP2;ratioP2;P2;SDS_P1;SDS_P2;PMS_P1;PMS_P2;Temp;Humidity;BMP_temperature;BMP_pressure;BME280_temperature;BME280_humidity;BME280_pressure;Samples;Min_cycle;Max_cycle;Signal;HPM_P1;HPM_P2
2022/07/30 00:01:50;;;;;;;6.88;6.57;;;;;;;-143.83;100.00;62900.06;5112465;28;20063;-62
2022/07/30 00:04:15;;;;;;;7.00;6.70;;;;;;;-143.83;100.00;62900.06;5113627;28;20600;-62
2022/07/30 00:06:41;;;;;;;6.68;6.38;;;;;;;-143.83;100.00;62900.06;5114078;28;20057;-62
2022/07/30 00:09:07;;;;;;;6.82;6.53;;;;;;;-143.83;100.00;62900.06;5114161;28;20094;-63
2022/07/30 00:11:33;;;;;;;6.60;6.30;;;;;;;-143.83;100.00;62900.06;5113759;28;20024;-62
2022/07/30 00:13:58;;;;;;;6.50;6.20;;;;;;;-143.83;100.00;62900.06;5113807;28;20107;-62
2022/07/30 00:16:24;;;;;;;7.10;6.80;;;;;;;-143.83;100.00;62900.06;5113881;28;20026;-62
2022/07/30 00:18:50;;;;;;;6.80;6.50;;;;;;;-143.83;100.00;62900.06;5112689;28;20030;-62
2022/07/30 00:21:15;;;;;;;6.88;6.57;;;;;;;-143.83;100.00;62900.06;5113581;28;20027;-62
2022/07/30 00:23:41;;;;;;;6.80;6.50;;;;;;;-143.83;100.00;62900.06;5113520;28;20517;-62
2022/07/30 00:26:06;;;;;;;6.80;6.50;;;;;;;-143.83;100.00;62900.06;5113010;28;20490;-62
2022/07/30 00:28:32;;;;;;;6.90;6.60;;;;;;;-143.83;100.00;62900.06;5114939;27;20054;-62
2022/07/30 00:30:57;;;;;;;6.90;6.60;;;;;;;-143.83;100.00;62900.06;5118023;27;20035;-62
2022/07/30 00:33:23;;;;;;;6.70;6.40;;;;;;;-143.83;100.00;62900.06;5113235;28;20030;-62
2022/07/30 00:35:48;;;;;;;6.82;6.53;;;;;;;-143.83;100.00;62900.06;5112151;28;20096;-62
2022/07/30 00:38:14;;;;;;;6.90;6.60;;;;;;;-143.83;100.00;62900.06;5113284;28;20106;-62
2022/07/30 00:40:39;;;;;;;6.63;6.32;;;;;;;-143.83;100.00;62900.06;5112001;28;20055;-62
2022/07/30 00:43:05;;;;;;;6.68;6.38;;;;;;;-143.83;100.00;62900.06;5112731;28;20495;-62
2022/07/30 00:45:31;;;;;;;6.95;6.65;;;;;;;-143.83;100.00;62900.06;5113001;28;20035;-62
2022/07/30 00:48:00;;;;;;;7.30;7.00;;;;;;;-143.83;100.00;62900.06;5109505;28;20016;-62
2022/07/30 00:50:26;;;;;;;6.97;6.68;;;;;;;-143.83;100.00;62900.06;5104765;28;20023;-62
2022/07/30 00:52:51;;;;;;;7.30;7.00;;;;;;;-143.83;100.00;62900.06;5111821;28;20085;-62
2022/07/30 00:55:17;;;;;;;6.75;6.45;;;;;;;-143.83;100.00;62900.06;5112673;28;20024;-62
2022/07/30 00:57:43;;;;;;;6.80;6.50;;;;;;;-143.83;100.00;62900.06;5113040;28;20027;-62
2022/07/30 01:00:12;;;;;;;6.80;6.50;;;;;;;-143.83;100.00;62900.06;5112744;28;20023;-62
2022/07/30 01:02:38;;;;;;;6.80;6.50;;;;;;;-143.83;100.00;62900.06;5112927;28;20106;-63
2022/07/30 01:05:05;;;;;;;6.90;6.60;;;;;;;-143.83;100.00;62900.06;5112955;28;20106;-62
2022/07/30 01:07:31;;;;;;;6.85;6.55;;;;;;;-143.83;100.00;62900.06;5113214;28;20425;-62
2022/07/30 01:09:57;;;;;;;7.10;6.80;;;;;;;-143.83;100.00;62900.06;5111915;28;20072;-62
2022/07/30 01:12:25;;;;;;;6.97;6.68;;;;;;;-143.83;100.00;62900.06;5113064;28;20030;-62
2022/07/30 01:14:51;;;;;;;6.60;6.30;;;;;;;-143.83;100.00;62900.06;5112899;28;20036;-62
2022/07/30 01:17:17;;;;;;;6.95;6.65;;;;;;;-143.83;100.00;62900.06;5112326;28;20076;-62
2022/07/30 01:19:47;;;;;;;6.90;6.60;;;;;;;-143.83;100.00;62900.06;5112427;28;20015;-62
2022/07/30 01:22:24;;;;;;;6.80;6.50;;;;;;;-143.83;100.00;62900.06;5112481;28;20019;-62
2022/07/30 01:25:02;;;;;;;6.97;6.68;;;;;;;-143.83;100.00;62900.06;5114269;27;20363;-62
2022/07/30 01:27:30;;;;;;;6.75;6.45;;;;;;;-143.83;100.00;62900.06;5113116;27;20023;-63
2022/07/30 01:29:57;;;;;;;7.07;6.78;;;;;;;-143.83;100.00;62900.06;5112451;28;20020;-62
2022/07/30 01:32:25;;;;;;;6.88;6.57;;;;;;;-143.83;100.00;62900.06;5112474;28;20317;-62
2022/07/30 01:34:52;;;;;;;6.60;6.30;;;;;;;-143.83;100.00;62900.06;5112319;28;20020;-62
2022/07/30 01:37:20;;;;;;;6.90;6.60;;;;;;;-143.83;100.00;62900.06;5111626;28;20062;-63
2022/07/30 01:39:46;;;;;;;6.80;6.50;;;;;;;-143.83;100.00;62900.06;5112241;28;20691;-63
2022/07/30 01:42:13;;;;;;;6.85;6.55;;;;;;;-143.83;100.00;62900.06;5111888;28;20077;-62
2022/07/30 01:44:40;;;;;;;7.00;6.70;;;;;;;-143.83;100.00;62900.06;5111251;28;20040;-62
2022/07/30 01:47:10;;;;;;;6.78;6.47;;;;;;;-143.83;100.00;62900.06;5111991;28;20057;-62
2022/07/30 01:49:37;;;;;;;6.60;6.30;;;;;;;-143.83;100.00;62900.06;5102332;28;20103;-62
2022/07/30 01:52:04;;;;;;;6.78;6.47;;;;;;;-143.83;100.00;62900.06;5112036;28;20394;-62
2022/07/30 01:54:32;;;;;;;6.90;6.60;;;;;;;-143.83;100.00;62900.06;5111875;28;20073;-61
2022/07/30 01:56:59;;;;;;;7.00;6.70;;;;;;;-143.83;100.00;62900.06;5111806;28;20447;-62
2022/07/30 01:59:27;;;;;;;6.65;6.35;;;;;;;-143.83;100.00;62900.06;5111114;28;20027;-62
2022/07/30 02:01:52;;;;;;;6.80;6.50;;;;;;;-143.83;100.00;62900.06;5099859;28;20020;-62
2022/07/30 02:04:18;;;;;;;6.70;6.40;;;;;;;-143.83;100.00;62900.06;5112020;28;20019;-62
2022/07/30 02:06:51;;;;;;;6.90;6.60;;;;;;;-143.83;100.00;62900.06;5111994;28;20020;-62
2022/07/30 02:09:22;;;;;;;7.00;6.70;;;;;;;-143.83;100.00;62900.06;5111717;28;20023;-62
2022/07/30 02:14:52;;;;;;;6.60;6.30;;;;;;;-143.83;100.00;62900.06;5102761;28;20043;-62
2022/07/30 02:17:25;;;;;;;6.80;6.50;;;;;;;-143.83;100.00;62900.06;5103404;28;20386;-62
2022/07/30 02:19:54;;;;;;;6.78;6.47;;;;;;;-143.83;100.00;62900.06;5108107;28;20394;-62
2022/07/30 02:22:24;;;;;;;6.70;6.40;;;;;;;-143.83;100.00;62900.06;5114497;28;20050;-62
2022/07/30 02:24:52;;;;;;;6.88;6.57;;;;;;;-143.83;100.00;62900.06;5111737;28;20028;-62
2022/07/30 02:27:23;;;;;;;6.97;6.68;;;;;;;-143.83;100.00;62900.06;5111779;28;20415;-62
2022/07/30 02:29:50;;;;;;;6.80;6.50;;;;;;;-143.83;100.00;62900.06;5111705;28;20031;-62
2022/07/30 02:32:19;;;;;;;6.80;6.50;;;;;;;-143.83;100.00;62900.06;5112043;28;20367;-62
2022/07/30 02:34:50;;;;;;;6.70;6.40;;;;;;;-143.83;100.00;62900.06;5109399;28;20031;-62
2022/07/30 02:37:21;;;;;;;7.00;6.70;;;;;;;-143.83;100.00;62900.06;5111982;28;20034;-62
2022/07/30 02:39:48;;;;;;;6.88;6.57;;;;;;;-143.83;100.00;62900.06;5111945;28;20031;-62
2022/07/30 02:42:15;;;;;;;6.70;6.40;;;;;;;-143.83;100.00;62900.06;5111652;28;20050;-62
2022/07/30 02:44:44;;;;;;;6.60;6.30;;;;;;;-143.83;100.00;62900.06;5103719;28;20094;-62
2022/07/30 02:47:12;;;;;;;6.75;6.45;;;;;;;-143.83;100.00;62900.06;5098274;28;20022;-62
2022/07/30 02:49:39;;;;;;;7.00;6.70;;;;;;;-143.83;100.00;62900.06;5114944;28;20019;-63
2022/07/30 02:52:12;;;;;;;6.90;6.60;;;;;;;-143.83;100.00;62900.06;5103542;28;20023;-62
2022/07/30 02:54:39;;;;;;;6.70;6.40;;;;;;;-143.83;100.00;62900.06;5107675;28;20024;-63
2022/07/30 02:57:06;;;;;;;6.80;6.50;;;;;;;-143.83;100.00;62900.06;5115275;28;20028;-62
2022/07/30 02:59:34;;;;;;;6.72;6.43;;;;;;;-143.83;100.00;62900.06;5115592;28;20499;-62
2022/07/30 03:02:01;;;;;;;6.78;6.47;;;;;;;-143.83;100.00;62900.06;5115309;28;20398;-62
2022/07/30 03:04:28;;;;;;;6.70;6.40;;;;;;;-143.83;100.00;62900.06;5115318;28;20051;-62
2022/07/30 03:06:54;;;;;;;6.72;6.43;;;;;;;-143.83;100.00;62900.06;5115085;28;20015;-62
2022/07/30 03:09:20;;;;;;;7.00;6.70;;;;;;;-143.83;100.00;62900.06;5114333;28;20031;-62
2022/07/30 03:11:50;;;;;;;6.80;6.50;;;;;;;-143.83;100.00;62900.06;5114934;28;20047;-62
2022/07/30 03:14:16;;;;;;;6.68;6.38;;;;;;;-143.83;100.00;62900.06;5115012;28;20246;-62
2022/07/30 03:16:47;;;;;;;6.80;6.50;;;;;;;-143.83;100.00;62900.06;5115009;27;20446;-62
2022/07/30 03:19:15;;;;;;;6.75;6.45;;;;;;;-143.83;100.00;62900.06;5120899;27;20028;-62
2022/07/30 03:21:42;;;;;;;6.60;6.30;;;;;;;-143.83;100.00;62900.06;5114975;28;20024;-62
2022/07/30 03:24:10;;;;;;;6.80;6.50;;;;;;;-143.83;100.00;62900.06;5114819;28;20047;-62
2022/07/30 03:26:37;;;;;;;7.00;6.70;;;;;;;-143.83;100.00;62900.06;5113809;28;20030;-62
2022/07/30 03:29:05;;;;;;;6.70;6.40;;;;;;;-143.83;100.00;62900.06;5115008;28;20084;-63
2022/07/30 03:31:31;;;;;;;6.80;6.50;;;;;;;-143.83;100.00;62900.06;5114912;28;20072;-62
2022/07/30 03:33:57;;;;;;;6.70;6.40;;;;;;;-143.83;100.00;62900.06;5114863;28;20103;-62
2022/07/30 03:36:24;;;;;;;7.05;6.75;;;;;;;-143.83;100.00;62900.06;5114428;28;20491;-62
2022/07/30 03:38:50;;;;;;;6.93;6.63;;;;;;;-143.83;100.00;62900.06;5114416;28;20467;-62
2022/07/30 03:41:17;;;;;;;7.10;6.80;;;;;;;-143.83;100.00;62900.06;5114230;28;20051;-63
2022/07/30 03:43:44;;;;;;;6.90;6.60;;;;;;;-143.83;100.00;62900.06;5113960;28;20022;-63
2022/07/30 03:46:11;;;;;;;6.95;6.65;;;;;;;-143.83;100.00;62900.06;5114338;28;20111;-62
2022/07/30 03:48:38;;;;;;;6.85;6.55;;;;;;;-143.83;100.00;62900.06;5114066;28;20031;-62
2022/07/30 03:51:06;;;;;;;6.88;6.57;;;;;;;-143.83;100.00;62900.06;5114202;28;20394;-63
2022/07/30 03:53:32;;;;;;;6.90;6.60;;;;;;;-143.83;100.00;62900.06;5114200;27;20024;-62
2022/07/30 03:55:58;;;;;;;6.97;6.68;;;;;;;-143.83;100.00;62900.06;5114104;28;20035;-63
2022/07/30 03:58:24;;;;;;;7.20;6.90;;;;;;;-143.83;100.00;62900.06;5112858;28;20020;-63
2022/07/30 04:00:50;;;;;;;7.20;6.90;;;;;;;-143.83;100.00;62900.06;5113366;28;20023;-62
2022/07/30 04:03:30;;;;;;;7.07;6.78;;;;;;;-143.83;100.00;62900.06;5114532;28;20100;-62
2022/07/30 04:05:56;;;;;;;7.20;6.90;;;;;;;-143.83;100.00;62900.06;5113983;28;20505;-63
2022/07/30 04:08:21;;;;;;;7.10;6.80;;;;;;;-143.83;100.00;62900.06;5114257;28;20035;-63
2022/07/30 04:10:48;;;;;;;7.20;6.90;;;;;;;-143.83;100.00;62900.06;5114053;28;20027;-63
2022/07/30 04:13:13;;;;;;;7.32;7.03;;;;;;;-143.83;100.00;62900.06;5113916;28;20032;-62
2022/07/30 04:16:00;;;;;;;7.07;6.78;;;;;;;-143.83;100.00;62900.06;5114382;27;20096;-62
2022/07/30 04:18:30;;;;;;;6.97;6.68;;;;;;;-143.83;100.00;62900.06;5113811;28;20043;-62
2022/07/30 04:20:58;;;;;;;6.80;6.50;;;;;;;-143.83;100.00;62900.06;5113800;28;20080;-61
2022/07/30 04:23:24;;;;;;;7.00;6.70;;;;;;;-143.83;100.00;62900.06;5113568;28;20471;-62
2022/07/30 04:25:50;;;;;;;7.18;6.88;;;;;;;-143.83;100.00;62900.06;5113462;27;20026;-62
2022/07/30 04:28:17;;;;;;;6.90;6.60;;;;;;;-143.83;100.00;62900.06;5113833;28;20031;-63
2022/07/30 04:30:42;;;;;;;6.90;6.60;;;;;;;-143.83;100.00;62900.06;5113668;28;20027;-62
2022/07/30 04:33:08;;;;;;;7.10;6.80;;;;;;;-143.83;100.00;62900.06;5112479;28;20512;-63
2022/07/30 04:35:34;;;;;;;7.10;6.80;;;;;;;-143.83;100.00;62900.06;5113338;28;20027;-61
2022/07/30 04:38:02;;;;;;;6.80;6.50;;;;;;;-143.83;100.00;62900.06;5105080;28;20023;-61
2022/07/30 04:40:29;;;;;;;7.00;6.70;;;;;;;-143.83;100.00;62900.06;5113363;28;20027;-63
2022/07/30 04:42:54;;;;;;;7.00;6.70;;;;;;;-143.83;100.00;62900.06;5099388;28;20498;-62
2022/07/30 04:45:21;;;;;;;6.95;6.65;;;;;;;-143.83;100.00;62900.06;5113260;28;20068;-63
2022/07/30 04:47:46;;;;;;;6.80;6.50;;;;;;;-143.83;100.00;62900.06;5108007;28;20020;-62
2022/07/30 04:50:13;;;;;;;6.85;6.55;;;;;;;-143.83;100.00;62900.06;5101158;28;20027;-62
2022/07/30 04:52:40;;;;;;;7.10;6.80;;;;;;;-143.83;100.00;62900.06;5112133;28;20047;-63
2022/07/30 04:55:08;;;;;;;7.00;6.70;;;;;;;-143.83;100.00;62900.06;5112743;28;20554;-63
2022/07/30 04:57:37;;;;;;;6.85;6.55;;;;;;;-143.83;100.00;62900.06;5112916;28;20020;-62
2022/07/30 05:00:05;;;;;;;7.00;6.70;;;;;;;-143.83;100.00;62900.06;5112930;28;20023;-62
2022/07/30 05:02:36;;;;;;;6.72;6.43;;;;;;;-143.83;100.00;62900.06;5112912;28;20442;-62
2022/07/30 05:05:03;;;;;;;6.88;6.57;;;;;;;-143.83;100.00;62900.06;5112725;28;20030;-62
2022/07/30 05:07:30;;;;;;;6.93;6.63;;;;;;;-143.83;100.00;62900.06;5112298;28;20631;-61
2022/07/30 05:09:56;;;;;;;6.68;6.38;;;;;;;-143.83;100.00;62900.06;5115098;27;20027;-61
2022/07/30 05:12:36;;;;;;;6.80;6.50;;;;;;;-143.83;100.00;62900.06;5122077;27;20102;-63
2022/07/30 05:15:03;;;;;;;6.97;6.68;;;;;;;-143.83;100.00;62900.06;5112389;28;20035;-63
2022/07/30 05:17:28;;;;;;;6.82;6.53;;;;;;;-143.83;100.00;62900.06;5112484;28;20027;-63
2022/07/30 05:19:54;;;;;;;7.00;6.70;;;;;;;-143.83;100.00;62900.06;5112278;28;20244;-62
2022/07/30 05:22:19;;;;;;;6.88;6.57;;;;;;;-143.83;100.00;62900.06;5112304;28;20048;-63
2022/07/30 05:24:45;;;;;;;6.75;6.45;;;;;;;-143.83;100.00;62900.06;5111487;28;20027;-63
2022/07/30 05:27:10;;;;;;;6.82;6.53;;;;;;;-143.83;100.00;62900.06;5112171;28;20019;-62
2022/07/30 05:29:36;;;;;;;7.03;6.72;;;;;;;-143.83;100.00;62900.06;5112358;28;20023;-62
2022/07/30 05:32:01;;;;;;;6.93;6.63;;;;;;;-143.83;100.00;62900.06;5112092;28;20019;-63
2022/07/30 05:34:27;;;;;;;7.00;6.70;;;;;;;-143.83;100.00;62900.06;5107316;28;20059;-63
2022/07/30 05:36:52;;;;;;;6.82;6.53;;;;;;;-143.83;100.00;62900.06;5111791;28;20357;-63
2022/07/30 05:39:18;;;;;;;7.05;6.75;;;;;;;-143.83;100.00;62900.06;5112267;28;20118;-62
2022/07/30 05:41:43;;;;;;;6.78;6.47;;;;;;;-143.83;100.00;62900.06;5111142;28;20094;-62
2022/07/30 05:44:09;;;;;;;7.00;6.70;;;;;;;-143.83;100.00;62900.06;5112012;28;20423;-62
2022/07/30 05:46:35;;;;;;;6.85;6.55;;;;;;;-143.83;100.00;62900.06;5111996;28;20015;-62
2022/07/30 05:49:00;;;;;;;6.90;6.60;;;;;;;-143.83;100.00;62900.06;5112264;28;20051;-62
2022/07/30 05:51:26;;;;;;;6.88;6.57;;;;;;;-143.83;100.00;62900.06;5111501;28;20076;-62
2022/07/30 05:53:51;;;;;;;7.10;6.80;;;;;;;-143.83;100.00;62900.06;5112273;28;20099;-62
2022/07/30 05:56:17;;;;;;;6.72;6.43;;;;;;;-143.83;100.00;62900.06;5111914;28;20023;-62
2022/07/30 05:58:42;;;;;;;7.00;6.70;;;;;;;-143.83;100.00;62900.06;5111134;28;20112;-63
2022/07/30 06:01:08;;;;;;;6.85;6.55;;;;;;;-143.83;100.00;62900.06;5111994;28;20034;-62
2022/07/30 06:03:34;;;;;;;6.85;6.55;;;;;;;-143.83;100.00;62900.06;5112090;28;20028;-62
2022/07/30 06:06:02;;;;;;;6.82;6.53;;;;;;;-143.83;100.00;62900.06;5112728;28;20106;-63
2022/07/30 06:08:27;;;;;;;7.00;6.70;;;;;;;-143.83;100.00;62900.06;5121334;27;20019;-63
2022/07/30 06:10:53;;;;;;;7.00;6.70;;;;;;;-143.83;100.00;62900.06;5111750;28;20502;-63
2022/07/30 06:13:18;;;;;;;6.97;6.68;;;;;;;-143.83;100.00;62900.06;5111953;28;20044;-62
2022/07/30 06:15:44;;;;;;;7.30;7.00;;;;;;;-143.83;100.00;62900.06;5099707;28;20035;-62
2022/07/30 06:18:09;;;;;;;6.88;6.57;;;;;;;-143.83;100.00;62900.06;5110241;28;20076;-63
2022/07/30 06:20:35;;;;;;;7.03;6.72;;;;;;;-143.83;100.00;62900.06;5111802;28;20027;-62
2022/07/30 06:23:00;;;;;;;7.10;6.80;;;;;;;-143.83;100.00;62900.06;5112424;28;20072;-62
2022/07/30 06:25:26;;;;;;;7.20;6.90;;;;;;;-143.83;100.00;62900.06;5115998;28;20390;-62
2022/07/30 06:27:51;;;;;;;7.18;6.88;;;;;;;-143.83;100.00;62900.06;5116067;28;20475;-62
2022/07/30 06:30:17;;;;;;;7.05;6.75;;;;;;;-143.83;100.00;62900.06;5107448;28;20536;-62
2022/07/30 06:32:44;;;;;;;7.20;6.90;;;;;;;-143.83;100.00;62900.06;5114986;28;20024;-62
2022/07/30 06:35:10;;;;;;;7.40;7.10;;;;;;;-143.83;100.00;62900.06;5115344;28;20108;-62
2022/07/30 06:37:35;;;;;;;7.72;7.43;;;;;;;-143.83;100.00;62900.06;5115683;28;20081;-62
2022/07/30 06:40:01;;;;;;;7.30;7.00;;;;;;;-143.83;100.00;62900.06;5115523;28;20051;-62
2022/07/30 06:42:27;;;;;;;7.35;7.05;;;;;;;-143.83;100.00;62900.06;5115392;28;20054;-62
2022/07/30 06:44:53;;;;;;;7.10;6.80;;;;;;;-143.83;100.00;62900.06;5115577;28;20027;-62
2022/07/30 06:47:27;;;;;;;7.20;6.90;;;;;;;-143.83;100.00;62900.06;5115622;28;20152;-62
2022/07/30 06:49:52;;;;;;;7.10;6.80;;;;;;;-143.83;100.00;62900.06;5107896;28;20023;-62
2022/07/30 06:52:18;;;;;;;7.28;6.97;;;;;;;-143.83;100.00;62900.06;5115201;28;20050;-62
2022/07/30 06:54:43;;;;;;;7.10;6.80;;;;;;;-143.83;100.00;62900.06;5114935;28;20023;-62
2022/07/30 06:57:09;;;;;;;7.10;6.80;;;;;;;-143.83;100.00;62900.06;5114815;28;20034;-61
2022/07/30 06:59:35;;;;;;;7.40;7.10;;;;;;;-143.83;100.00;62900.06;5115157;28;20038;-62
2022/07/30 07:02:01;;;;;;;7.50;7.20;;;;;;;-143.83;100.00;62900.06;5114033;28;20088;-62
2022/07/30 07:04:26;;;;;;;7.25;6.95;;;;;;;-143.83;100.00;62900.06;5122141;27;20027;-61
2022/07/30 07:06:52;;;;;;;7.50;7.20;;;;;;;-143.83;100.00;62900.06;5113974;28;20030;-62
2022/07/30 07:09:17;;;;;;;7.40;7.10;;;;;;;-143.83;100.00;62900.06;5115222;28;20034;-66
2022/07/30 07:11:43;;;;;;;7.40;7.10;;;;;;;-143.83;100.00;62900.06;5115082;28;20505;-62
2022/07/30 07:14:08;;;;;;;7.22;6.93;;;;;;;-143.83;100.00;62900.06;5114533;28;20031;-62
2022/07/30 07:16:34;;;;;;;7.20;6.90;;;;;;;-143.83;100.00;62900.06;5114907;28;20076;-61
2022/07/30 07:18:59;;;;;;;7.28;6.97;;;;;;;-143.83;100.00;62900.06;5114726;28;20049;-63
2022/07/30 07:21:25;;;;;;;7.40;7.10;;;;;;;-143.83;100.00;62900.06;5114126;28;20031;-63
2022/07/30 07:23:51;;;;;;;7.30;7.00;;;;;;;-143.83;100.00;62900.06;5113552;28;20081;-62
2022/07/30 07:26:16;;;;;;;7.50;7.20;;;;;;;-143.83;100.00;62900.06;5112570;28;20080;-62
2022/07/30 07:28:42;;;;;;;7.60;7.30;;;;;;;-143.83;100.00;62900.06;5113234;28;20034;-63
2022/07/30 07:31:09;;;;;;;7.22;6.93;;;;;;;-143.83;100.00;62900.06;5114606;27;20339;-63
2022/07/30 07:33:34;;;;;;;7.20;6.90;;;;;;;-143.83;100.00;62900.06;5114504;28;20097;-62
2022/07/30 07:36:00;;;;;;;7.13;6.82;;;;;;;-143.83;100.00;62900.06;5113718;28;20027;-62
2022/07/30 07:38:26;;;;;;;7.00;6.70;;;;;;;-143.83;100.00;62900.06;5114414;27;20509;-63
2022/07/30 07:40:52;;;;;;;7.10;6.80;;;;;;;-143.83;100.00;62900.06;5114207;27;20023;-63
2022/07/30 07:43:17;;;;;;;7.45;7.15;;;;;;;-143.83;100.00;62900.06;5114214;28;20048;-62
2022/07/30 07:45:46;;;;;;;7.30;7.00;;;;;;;-143.83;100.00;62900.06;5108977;28;20364;-61
2022/07/30 07:48:12;;;;;;;7.20;6.90;;;;;;;-143.83;100.00;62900.06;5114018;28;20019;-61
2022/07/30 07:50:38;;;;;;;7.32;7.03;;;;;;;-143.83;100.00;62900.06;5110663;28;20103;-62
2022/07/30 07:53:05;;;;;;;7.63;7.32;;;;;;;-143.83;100.00;62900.06;5105834;28;20111;-63
2022/07/30 07:55:30;;;;;;;7.50;7.20;;;;;;;-143.83;100.00;62900.06;5109272;28;20068;-63
2022/07/30 07:57:56;;;;;;;7.45;7.15;;;;;;;-143.83;100.00;62900.06;5109320;27;20027;-65
2022/07/30 08:00:22;;;;;;;7.30;7.00;;;;;;;-143.83;100.00;62900.06;5114956;27;20024;-67
2022/07/30 08:02:47;;;;;;;7.40;7.10;;;;;;;-143.83;100.00;62900.06;5093250;28;20028;-67
2022/07/30 08:05:14;;;;;;;7.40;7.10;;;;;;;-143.83;100.00;62900.06;5108775;28;20108;-64
2022/07/30 08:07:40;;;;;;;7.50;7.20;;;;;;;-143.83;100.00;62900.06;5114080;27;20039;-64
2022/07/30 08:10:06;;;;;;;7.53;7.22;;;;;;;-143.83;100.00;62900.06;5110397;27;20100;-64
2022/07/30 08:12:31;;;;;;;7.40;7.10;;;;;;;-143.83;100.00;62900.06;5111383;27;20035;-65
2022/07/30 08:14:57;;;;;;;7.60;7.30;;;;;;;-143.83;100.00;62900.06;5112136;27;20401;-64
2022/07/30 08:17:23;;;;;;;7.60;7.30;;;;;;;-143.83;100.00;62900.06;5116543;27;20069;-65
2022/07/30 08:19:48;;;;;;;7.18;6.88;;;;;;;-143.83;100.00;62900.06;5103653;28;20051;-64
2022/07/30 08:22:14;;;;;;;7.60;7.30;;;;;;;-143.83;100.00;62900.06;5099124;28;20474;-65
2022/07/30 08:24:39;;;;;;;7.50;7.20;;;;;;;-143.83;100.00;62900.06;5096856;28;20021;-64
2022/07/30 08:27:05;;;;;;;7.28;6.97;;;;;;;-143.83;100.00;62900.06;5109761;28;20027;-64
2022/07/30 08:29:31;;;;;;;7.50;7.20;;;;;;;-143.83;100.00;62900.06;5109712;28;20545;-64
2022/07/30 08:31:56;;;;;;;7.38;7.07;;;;;;;-143.83;100.00;62900.06;5109125;27;20098;-63
2022/07/30 08:34:25;;;;;;;7.30;7.00;;;;;;;-143.83;100.00;62900.06;5111042;27;20019;-65
2022/07/30 08:36:50;;;;;;;7.50;7.20;;;;;;;-143.83;100.00;62900.06;5104250;27;20031;-64
2022/07/30 08:39:16;;;;;;;7.40;7.10;;;;;;;-143.83;100.00;62900.06;5109804;28;20030;-64
2022/07/30 08:41:41;;;;;;;7.40;7.10;;;;;;;-143.83;100.00;62900.06;5111252;27;20074;-65
2022/07/30 08:44:10;;;;;;;7.50;7.20;;;;;;;-143.83;100.00;62900.06;5118713;27;20049;-64
2022/07/30 08:46:42;;;;;;;7.50;7.20;;;;;;;-143.83;100.00;62900.06;5099223;27;20020;-65
2022/07/30 08:49:10;;;;;;;7.50;7.20;;;;;;;-143.83;100.00;62900.06;5103379;27;20025;-63
2022/07/30 08:51:36;;;;;;;7.47;7.18;;;;;;;-143.83;100.00;62900.06;5107057;27;20058;-64
2022/07/30 08:54:03;;;;;;;7.60;7.30;;;;;;;-143.83;100.00;62900.06;5098956;28;20035;-65
2022/07/30 08:56:28;;;;;;;7.30;7.00;;;;;;;-143.83;100.00;62900.06;5119975;27;20069;-65
2022/07/30 08:58:54;;;;;;;7.47;7.18;;;;;;;-143.83;100.00;62900.06;5103344;27;20027;-66
2022/07/30 09:01:21;;;;;;;7.32;7.03;;;;;;;-143.83;100.00;62900.06;5111811;27;20126;-65
2022/07/30 09:03:46;;;;;;;7.30;7.00;;;;;;;-143.83;100.00;62900.06;5109311;27;20037;-66
2022/07/30 09:06:12;;;;;;;7.18;6.88;;;;;;;-143.83;100.00;62900.06;5103291;27;20364;-66
2022/07/30 09:08:37;;;;;;;7.45;7.15;;;;;;;-143.83;100.00;62900.06;5105947;28;20398;-65
2022/07/30 09:11:03;;;;;;;7.30;7.00;;;;;;;-143.83;100.00;62900.06;5107145;27;20096;-67
2022/07/30 09:13:33;;;;;;;7.20;6.90;;;;;;;-143.83;100.00;62900.06;5111761;27;20442;-65
2022/07/30 09:15:59;;;;;;;7.28;6.97;;;;;;;-143.83;100.00;62900.06;5108686;28;20540;-67
2022/07/30 09:18:34;;;;;;;7.22;6.93;;;;;;;-143.83;100.00;62900.06;5102985;28;20475;-66
2022/07/30 09:21:12;;;;;;;7.40;7.10;;;;;;;-143.83;100.00;62900.06;5108260;28;20601;-66
2022/07/30 09:23:38;;;;;;;7.43;7.13;;;;;;;-143.83;100.00;62900.06;5113848;27;20036;-66
2022/07/30 09:26:03;;;;;;;7.60;7.30;;;;;;;-143.83;100.00;62900.06;5095936;27;20350;-65
2022/07/30 09:28:32;;;;;;;7.30;7.00;;;;;;;-143.83;100.00;62900.06;5104742;27;20405;-65
2022/07/30 09:30:58;;;;;;;7.10;6.80;;;;;;;-143.83;100.00;62900.06;5114593;27;20031;-65
2022/07/30 09:33:36;;;;;;;7.10;6.80;;;;;;;-143.83;100.00;62900.06;5117714;27;20381;-65
2022/07/30 09:36:04;;;;;;;7.38;7.07;;;;;;;-143.83;100.00;62900.06;5105154;27;20031;-66
2022/07/30 09:38:41;;;;;;;7.28;6.97;;;;;;;-143.83;100.00;62900.06;5113625;27;20027;-65
2022/07/30 09:41:07;;;;;;;7.40;7.10;;;;;;;-143.83;100.00;62900.06;5107887;27;20080;-65
2022/07/30 09:43:41;;;;;;;7.35;7.05;;;;;;;-143.83;100.00;62900.06;5113586;27;20106;-65
2022/07/30 09:46:06;;;;;;;7.20;6.90;;;;;;;-143.83;100.00;62900.06;5107093;27;20099;-65
2022/07/30 09:48:32;;;;;;;7.20;6.90;;;;;;;-143.83;100.00;62900.06;5116026;27;20084;-64
2022/07/30 09:50:58;;;;;;;7.07;6.78;;;;;;;-143.83;100.00;62900.06;5104612;27;20473;-65
2022/07/30 09:53:23;;;;;;;7.20;6.90;;;;;;;-143.83;100.00;62900.06;5109199;27;20470;-66
2022/07/30 09:55:50;;;;;;;7.30;7.00;;;;;;;-143.83;100.00;62900.06;5098253;28;20062;-66
2022/07/30 09:58:16;;;;;;;7.32;7.03;;;;;;;-143.83;100.00;62900.06;5106178;28;20111;-66
2022/07/30 10:00:43;;;;;;;7.18;6.88;;;;;;;-143.83;100.00;62900.06;5107808;28;20023;-66
2022/07/30 10:03:23;;;;;;;7.30;7.00;;;;;;;-143.83;100.00;62900.06;5102203;28;20040;-65
2022/07/30 10:05:53;;;;;;;7.07;6.78;;;;;;;-143.83;100.00;62900.06;5107937;28;20031;-65
2022/07/30 10:08:18;;;;;;;7.20;6.90;;;;;;;-143.83;100.00;62900.06;5107153;28;20035;-66
2022/07/30 10:10:44;;;;;;;7.47;7.18;;;;;;;-143.83;100.00;62900.06;5107758;28;20026;-65
2022/07/30 10:13:12;;;;;;;7.38;7.07;;;;;;;-143.83;100.00;62900.06;5107404;28;20148;-65
2022/07/30 10:15:38;;;;;;;7.40;7.10;;;;;;;-143.83;100.00;62900.06;5102031;28;20110;-62
2022/07/30 10:18:05;;;;;;;7.30;7.00;;;;;;;-143.83;100.00;62900.06;5110311;28;20549;-63
2022/07/30 10:20:31;;;;;;;7.22;6.93;;;;;;;-143.83;100.00;62900.06;5110221;28;20030;-64
2022/07/30 10:22:57;;;;;;;6.90;6.60;;;;;;;-143.83;100.00;62900.06;5116129;27;20030;-63
2022/07/30 10:25:24;;;;;;;7.10;6.80;;;;;;;-143.83;100.00;62900.06;5107027;28;20043;-64
2022/07/30 10:27:50;;;;;;;7.30;7.00;;;;;;;-143.83;100.00;62900.06;5110166;28;20073;-64
2022/07/30 10:30:17;;;;;;;7.20;6.90;;;;;;;-143.83;100.00;62900.06;5114319;28;20486;-62
2022/07/30 10:32:43;;;;;;;7.53;7.22;;;;;;;-143.83;100.00;62900.06;5110994;28;20114;-64
2022/07/30 10:35:10;;;;;;;7.30;7.00;;;;;;;-143.83;100.00;62900.06;5109728;28;20121;-63
2022/07/30 10:37:40;;;;;;;7.60;7.30;;;;;;;-143.83;100.00;62900.06;5109773;28;20027;-63
2022/07/30 10:40:17;;;;;;;7.60;7.30;;;;;;;-143.83;100.00;62900.06;5115428;27;20027;-63
2022/07/30 10:43:20;;;;;;;7.13;6.82;;;;;;;-143.83;100.00;62900.06;5110953;28;20134;-62
2022/07/30 10:46:09;;;;;;;7.10;6.80;;;;;;;-143.83;100.00;62900.06;5098722;28;20484;-62
2022/07/30 10:48:35;;;;;;;7.05;6.75;;;;;;;-143.83;100.00;62900.06;5099248;28;20043;-61
2022/07/30 10:51:01;;;;;;;7.20;6.90;;;;;;;-143.83;100.00;62900.06;5103952;28;20027;-63
2022/07/30 10:53:45;;;;;;;7.25;6.95;;;;;;;-143.83;100.00;62900.06;5106937;28;20088;-64
2022/07/30 10:56:22;;;;;;;7.07;6.78;;;;;;;-143.83;100.00;62900.06;5091832;28;20036;-63
2022/07/30 10:59:09;;;;;;;7.28;6.97;;;;;;;-143.83;100.00;62900.06;5100273;28;20041;-63
2022/07/30 11:01:46;;;;;;;7.15;6.85;;;;;;;-143.83;100.00;62900.06;5103285;28;20038;-63
2022/07/30 11:04:22;;;;;;;7.20;6.90;;;;;;;-143.83;100.00;62900.06;5103349;28;20140;-64
2022/07/30 11:06:49;;;;;;;7.07;6.78;;;;;;;-143.83;100.00;62900.06;5110347;28;20035;-64
2022/07/30 11:09:34;;;;;;;7.28;6.97;;;;;;;-143.83;100.00;62900.06;5102582;28;20032;-63
2022/07/30 11:11:59;;;;;;;7.10;6.80;;;;;;;-143.83;100.00;62900.06;5115092;27;20043;-64
2022/07/30 11:14:46;;;;;;;7.20;6.90;;;;;;;-143.83;100.00;62900.06;5123891;27;20031;-64